Terminal Aerodrome Forecast
Issued by NWS

Home | Current Version | Previous Version | Text Only | Print | Product List | Glossary On
Versions: 1 2 3 4 5 6 7 8 9 10 11 12 13 14 15 16 17 18 19 20 21 22 23 24 25 26 27 28 29 30 31 32 33
000
FTUS45 KBOI 271140
TAFMYL
TAF
KMYL 271140Z 2712/2812 VRB03KT P6SM BKN025 OVC250
     FM272200 VRB03KT 3SM -SN OVC020
     FM280200 16006KT 1SM -SN BR OVC005
     FM280800 17005KT 3SM -SHSN BKN020 OVC040
     FM281100 17005KT P6SM BKN025 OVC050=

USA.gov is the U.S. government's official web portal to all federal, state and local government web resources and services.